DAL1504 KLAX-KATL
Flight info
| Callsign | DAL1504 |
|---|---|
| Flight time | N/A |
| Altitude | 39000 |
| Route | DOTSS2 CLEEE PKE HIDAT KA27O NABOB J74 SJN J231 ACH TCC J78 IRW J14 LIT J66 BEATS RUSSA GLAVN2 |
| Aircraft | A359/H-SDE2E3GHIJ3J4J5LM1ORWXY/LB1D1 |
Departure
| Time | 2026-04-24 23:07 |
|---|---|
| Airport | Los Angeles International Airport (KLAX) |
Arrival
| Time | N/A |
|---|---|
| Airport | Hartsfield Jackson Atlanta International Airport (KATL) |
| Time | Latitude | Longitude | Altitude | Speed | Heading |
|---|---|---|---|---|---|
| 2026-04-24 22:40 | 33.94554 | -118.40842 | 99 ft | 0 kts | 89° |
| 2026-04-24 23:00 | 33.94553 | -118.40864 | 98 ft | 4 kts | 60° |
| 2026-04-24 23:00 | 33.94536 | -118.40877 | 98 ft | 4 kts | 356° |
| 2026-04-24 23:00 | 33.94511 | -118.40877 | 99 ft | 3 kts | 19° |
| 2026-04-24 23:00 | 33.94529 | -118.40868 | 98 ft | 4 kts | 15° |
| 2026-04-24 23:01 | 33.94538 | -118.40870 | 99 ft | 0 kts | 353° |
| 2026-04-24 23:03 | 33.94573 | -118.40882 | 101 ft | 10 kts | 338° |
| 2026-04-24 23:04 | 33.94674 | -118.40909 | 103 ft | 19 kts | 356° |
| 2026-04-24 23:04 | 33.94761 | -118.40820 | 102 ft | 19 kts | 84° |
| 2026-04-24 23:04 | 33.94775 | -118.40649 | 102 ft | 22 kts | 82° |
| 2026-04-24 23:04 | 33.94800 | -118.40457 | 102 ft | 25 kts | 81° |
| 2026-04-24 23:05 | 33.94877 | -118.40276 | 102 ft | 25 kts | 51° |
| 2026-04-24 23:05 | 33.94921 | -118.40075 | 101 ft | 27 kts | 82° |
| 2026-04-24 23:05 | 33.95008 | -118.39921 | 102 ft | 20 kts | 357° |
| 2026-04-24 23:05 | 33.95036 | -118.39972 | 104 ft | 0 kts | 265° |
| 2026-04-24 23:06 | 33.95029 | -118.40057 | 100 ft | 42 kts | 263° |
| 2026-04-24 23:06 | 33.94957 | -118.40749 | 105 ft | 121 kts | 263° |
| 2026-04-24 23:07 | 33.94865 | -118.41710 | 214 ft | 159 kts | 262° |
| 2026-04-24 23:07 | 33.94749 | -118.42791 | 1061 ft | 155 kts | 259° |
| 2026-04-24 23:07 | 33.94604 | -118.44156 | 1832 ft | 178 kts | 259° |
| 2026-04-24 23:07 | 33.94432 | -118.45771 | 2247 ft | 211 kts | 261° |
| 2026-04-24 23:08 | 33.94260 | -118.47673 | 2626 ft | 244 kts | 264° |
| 2026-04-24 23:08 | 33.94114 | -118.49765 | 3390 ft | 254 kts | 258° |
| 2026-04-24 23:08 | 33.93489 | -118.51748 | 4363 ft | 255 kts | 237° |
| 2026-04-24 23:08 | 33.92226 | -118.53246 | 5307 ft | 261 kts | 211° |
| 2026-04-24 23:09 | 33.90486 | -118.53767 | 6246 ft | 267 kts | 182° |
| 2026-04-24 23:09 | 33.88620 | -118.53932 | 7134 ft | 271 kts | 193° |
| 2026-04-24 23:09 | 33.86739 | -118.54284 | 8122 ft | 276 kts | 190° |
| 2026-04-24 23:09 | 33.84817 | -118.54484 | 9185 ft | 279 kts | 186° |
| 2026-04-24 23:10 | 33.82854 | -118.54484 | 10201 ft | 285 kts | 181° |
| 2026-04-24 23:10 | 33.80804 | -118.54252 | 10745 ft | 309 kts | 174° |
| 2026-04-24 23:10 | 33.79363 | -118.53909 | 11000 ft | 326 kts | 172° |
| 2026-04-24 23:10 | 33.77071 | -118.53519 | 11632 ft | 337 kts | 179° |
| 2026-04-24 23:11 | 33.74721 | -118.53163 | 12544 ft | 344 kts | 174° |
| 2026-04-24 23:11 | 33.71632 | -118.51892 | 13729 ft | 363 kts | 157° |
| 2026-04-24 23:11 | 33.70229 | -118.50746 | 14225 ft | 375 kts | 144° |
| 2026-04-24 23:11 | 33.68563 | -118.48256 | 14982 ft | 393 kts | 122° |
| 2026-04-24 23:12 | 33.67515 | -118.45186 | 15748 ft | 403 kts | 112° |